Time;durP1;ratioP1;P1;durP2;ratioP2;P2;SDS_P1;SDS_P2;PMS_P1;PMS_P2;Temp;Humidity;BMP_temperature;BMP_pressure;BME280_temperature;BME280_humidity;BME280_pressure;Samples;Min_cycle;Max_cycle;Signal;HPM_P1;HPM_P2
2023/09/10 00:02:24;;;;;;;748.00;701.40;;;;;;;21.53;100.00;101661.25;10460911;28;20119;-67
2023/09/10 00:07:25;;;;;;;732.35;686.90;;;;;;;21.48;100.00;101658.44;10493441;28;20498;-67
2023/09/10 00:12:25;;;;;;;717.08;673.45;;;;;;;21.42;100.00;101664.97;10456505;28;20037;-67
2023/09/10 00:17:26;;;;;;;720.20;676.22;;;;;;;21.36;100.00;101665.97;10474115;28;20072;-67
2023/09/10 00:22:26;;;;;;;713.80;669.25;;;;;;;21.33;100.00;101660.94;10459506;28;20036;-68
2023/09/10 00:27:27;;;;;;;685.17;644.75;;;;;;;21.30;100.00;101658.66;10482066;28;20083;-67
2023/09/10 00:32:28;;;;;;;706.63;663.63;;;;;;;21.29;100.00;101646.81;10502930;28;20044;-67
2023/09/10 00:37:29;;;;;;;710.83;667.38;;;;;;;21.24;100.00;101649.47;10481670;28;20039;-67
2023/09/10 00:42:29;;;;;;;690.05;649.45;;;;;;;21.18;100.00;101644.13;10481130;28;20053;-68
2023/09/10 00:47:29;;;;;;;674.47;634.97;;;;;;;21.17;100.00;101650.75;10480933;28;20513;-68
2023/09/10 00:52:30;;;;;;;675.53;636.08;;;;;;;21.16;100.00;101640.81;10480623;28;20036;-67
2023/09/10 00:57:30;;;;;;;668.65;629.95;;;;;;;21.11;100.00;101647.88;10498561;28;20045;-68
2023/09/10 01:02:31;;;;;;;673.58;633.50;;;;;;;21.08;100.00;101642.06;10463642;28;20116;-68
2023/09/10 01:07:31;;;;;;;667.15;628.70;;;;;;;21.05;100.00;101642.53;10480555;28;20040;-68
2023/09/10 01:12:59;;;;;;;650.63;612.58;;;;;;;21.01;100.00;101646.91;10482357;28;20021;-68
2023/09/10 01:18:06;;;;;;;653.83;616.40;;;;;;;20.94;100.00;101647.06;10498156;28;20525;-67
2023/09/10 01:23:25;;;;;;;635.05;599.53;;;;;;;20.90;100.00;101651.41;10497725;28;20218;-68
2023/09/10 01:28:26;;;;;;;618.72;583.50;;;;;;;20.85;100.00;101643.88;10464543;28;20036;-67
2023/09/10 01:33:36;;;;;;;628.92;593.83;;;;;;;20.80;100.00;101652.03;10479363;28;20475;-68
2023/09/10 01:38:52;;;;;;;606.70;573.08;;;;;;;20.75;100.00;101651.13;10447596;28;20029;-67
2023/09/10 01:43:52;;;;;;;591.22;558.63;;;;;;;20.74;100.00;101650.28;10497284;28;20056;-67
2023/09/10 01:48:53;;;;;;;575.95;544.47;;;;;;;20.73;100.00;101654.09;10480909;28;20063;-67
2023/09/10 01:53:53;;;;;;;582.70;551.17;;;;;;;20.70;100.00;101656.50;10479983;28;20040;-68
2023/09/10 01:58:54;;;;;;;603.92;570.65;;;;;;;20.66;100.00;101651.50;10496750;28;20040;-68
2023/09/10 02:03:54;;;;;;;605.33;571.75;;;;;;;20.57;100.00;101658.47;10495863;28;20032;-68
2023/09/10 02:08:54;;;;;;;598.78;565.33;;;;;;;20.54;100.00;101664.47;10478113;28;20056;-68
2023/09/10 02:13:55;;;;;;;597.17;564.53;;;;;;;20.50;100.00;101663.28;10495099;28;20028;-67
2023/09/10 02:18:55;;;;;;;577.30;545.60;;;;;;;20.48;100.00;101659.09;10495366;28;20036;-67
2023/09/10 02:23:56;;;;;;;567.53;537.03;;;;;;;20.42;100.00;101655.41;10460583;28;20040;-68
2023/09/10 02:28:56;;;;;;;578.33;547.25;;;;;;;20.44;100.00;101653.25;10477308;28;20068;-68
2023/09/10 02:34:00;;;;;;;581.53;550.50;;;;;;;20.47;100.00;101650.00;10479724;28;20032;-68
2023/09/10 02:39:01;;;;;;;603.65;569.38;;;;;;;20.42;100.00;101661.75;10483687;28;20064;-67
2023/09/10 02:44:01;;;;;;;581.90;550.42;;;;;;;20.41;100.00;101651.81;10494593;28;20103;-67
2023/09/10 02:49:01;;;;;;;574.55;543.30;;;;;;;20.47;100.00;101649.16;10459893;28;20051;-68
2023/09/10 02:54:02;;;;;;;592.35;560.10;;;;;;;20.40;100.00;101641.91;10476169;28;20043;-67
2023/09/10 02:59:02;;;;;;;473.02;447.77;;;;;;;20.43;100.00;101643.31;10476684;28;20464;-67
2023/09/10 03:04:03;;;;;;;141.30;133.63;;;;;;;20.44;100.00;101645.00;10476039;28;20254;-68
2023/09/10 03:09:03;;;;;;;158.60;150.13;;;;;;;20.41;100.00;101645.47;10494283;28;20079;-68
2023/09/10 03:14:05;;;;;;;162.18;153.07;;;;;;;20.32;100.00;101642.28;10492796;28;20094;-68
2023/09/10 03:19:05;;;;;;;395.00;376.00;;;;;;;20.31;100.00;101637.03;10474860;28;20055;-68
2023/09/10 03:24:06;;;;;;;390.52;371.45;;;;;;;20.29;100.00;101631.75;10474769;28;20047;-67
2023/09/10 03:29:06;;;;;;;403.40;382.60;;;;;;;20.24;100.00;101630.84;10492610;28;20637;-68
2023/09/10 03:34:06;;;;;;;391.85;372.65;;;;;;;20.27;100.00;101630.34;10492716;28;20044;-68
2023/09/10 03:39:07;;;;;;;384.23;364.73;;;;;;;20.19;100.00;101621.38;10458101;28;20048;-67
2023/09/10 03:44:07;;;;;;;381.48;362.73;;;;;;;20.23;100.00;101619.00;10473516;28;20056;-68
2023/09/10 03:49:08;;;;;;;335.55;318.83;;;;;;;20.20;100.00;101620.34;10492290;28;20052;-67
2023/09/10 03:54:11;;;;;;;377.55;358.70;;;;;;;20.23;100.00;101630.00;10492411;28;20392;-68
2023/09/10 03:59:11;;;;;;;387.00;367.83;;;;;;;20.24;100.00;101633.59;10497642;28;20077;-68
2023/09/10 04:04:12;;;;;;;386.50;367.65;;;;;;;20.25;100.00;101627.00;10481630;28;20400;-68
2023/09/10 04:09:12;;;;;;;364.40;346.33;;;;;;;20.17;100.00;101630.97;10465836;28;20025;-67
2023/09/10 04:14:13;;;;;;;391.00;372.08;;;;;;;20.12;100.00;101633.63;10499535;28;20071;-68
2023/09/10 04:19:13;;;;;;;398.85;378.63;;;;;;;20.08;100.00;101626.94;10481861;28;20037;-67
2023/09/10 04:24:13;;;;;;;386.60;366.77;;;;;;;20.05;100.00;101627.44;10499657;28;20066;-67
2023/09/10 04:29:14;;;;;;;371.27;352.75;;;;;;;20.02;100.00;101626.00;10499396;28;20048;-67
2023/09/10 04:34:14;;;;;;;401.15;380.15;;;;;;;20.01;100.00;101620.75;10498739;28;20377;-69
2023/09/10 04:39:14;;;;;;;403.60;382.63;;;;;;;19.98;100.00;101630.31;10498445;28;20029;-67
2023/09/10 04:44:15;;;;;;;403.05;382.60;;;;;;;19.98;100.00;101628.41;10480394;28;20106;-67
2023/09/10 04:49:16;;;;;;;399.00;377.60;;;;;;;19.92;100.00;101628.53;10480752;28;20174;-68
2023/09/10 04:54:16;;;;;;;396.10;374.23;;;;;;;19.95;100.00;101633.56;10498494;28;20061;-68
2023/09/10 04:59:16;;;;;;;386.50;366.05;;;;;;;19.93;100.00;101630.19;10498790;28;20058;-68
2023/09/10 05:04:17;;;;;;;400.92;379.88;;;;;;;19.91;100.00;101632.34;10484154;28;20043;-68
2023/09/10 05:09:17;;;;;;;409.05;386.70;;;;;;;19.89;100.00;101635.34;10504337;28;20044;-68
2023/09/10 05:14:18;;;;;;;404.98;384.00;;;;;;;19.90;100.00;101626.00;10503539;28;20835;-67
2023/09/10 05:19:21;;;;;;;420.48;399.08;;;;;;;19.90;100.00;101630.69;10502169;28;20412;-66
2023/09/10 05:24:21;;;;;;;398.60;378.17;;;;;;;19.92;100.00;101634.84;10479893;28;20037;-67
2023/09/10 05:29:22;;;;;;;385.00;364.75;;;;;;;19.97;100.00;101631.38;10497199;28;20111;-68
2023/09/10 05:34:22;;;;;;;405.75;384.52;;;;;;;20.06;100.00;101629.09;10479176;28;20029;-68
2023/09/10 05:39:23;;;;;;;414.05;392.30;;;;;;;20.11;100.00;101637.47;10496194;28;20060;-66
2023/09/10 05:44:23;;;;;;;420.98;398.90;;;;;;;20.21;100.00;101638.50;10496427;28;20476;-67
2023/09/10 05:49:24;;;;;;;404.00;382.85;;;;;;;20.29;100.00;101647.44;10495873;28;20032;-66
2023/09/10 05:54:24;;;;;;;374.88;355.80;;;;;;;20.41;100.00;101648.22;10478477;28;20539;-68
2023/09/10 05:59:24;;;;;;;407.23;385.00;;;;;;;20.50;100.00;101641.25;10495695;28;20505;-68
2023/09/10 06:04:25;;;;;;;396.40;375.65;;;;;;;20.92;100.00;101642.88;10495646;28;20036;-67
2023/09/10 06:09:26;;;;;;;439.58;416.60;;;;;;;21.54;100.00;101646.41;10494112;28;20032;-67
2023/09/10 06:14:27;;;;;;;454.17;430.58;;;;;;;22.06;100.00;101654.31;10476837;28;20555;-67
2023/09/10 06:19:28;;;;;;;450.95;428.13;;;;;;;22.47;100.00;101659.53;10494047;28;20112;-68
2023/09/10 06:24:28;;;;;;;521.90;493.80;;;;;;;22.75;100.00;101662.03;10494888;28;20048;-67
2023/09/10 06:29:29;;;;;;;517.13;489.45;;;;;;;23.26;100.00;101655.31;10494883;28;20476;-69
2023/09/10 06:34:29;;;;;;;516.88;489.45;;;;;;;23.57;100.00;101664.69;10476995;28;20041;-67
2023/09/10 06:39:30;;;;;;;554.35;524.05;;;;;;;23.83;100.00;101672.06;10494487;28;20357;-67
2023/09/10 06:44:30;;;;;;;594.15;561.15;;;;;;;24.30;100.00;101673.94;10450692;28;20540;-68
2023/09/10 06:49:31;;;;;;;589.05;556.45;;;;;;;24.65;100.00;101675.19;10467930;28;20135;-66
2023/09/10 06:54:32;;;;;;;641.22;604.10;;;;;;;24.78;100.00;101668.31;10452650;28;20041;-68
2023/09/10 06:59:32;;;;;;;644.95;607.65;;;;;;;25.16;100.00;101671.69;10450483;28;20459;-66
2023/09/10 07:04:32;;;;;;;696.72;655.05;;;;;;;25.66;98.52;101667.22;10452086;28;20432;-68
2023/09/10 07:09:33;;;;;;;746.25;699.53;;;;;;;25.87;97.85;101674.41;10452180;28;20120;-66
2023/09/10 07:14:33;;;;;;;755.97;708.35;;;;;;;25.82;95.18;101668.88;10450689;28;20040;-66
2023/09/10 07:19:34;;;;;;;747.25;700.17;;;;;;;26.23;94.36;101673.44;10450977;28;20037;-67
2023/09/10 07:24:34;;;;;;;768.55;719.20;;;;;;;26.75;94.42;101667.38;10450748;28;20106;-67
2023/09/10 07:29:34;;;;;;;767.97;719.15;;;;;;;27.12;87.32;101680.75;10450006;28;20044;-66
2023/09/10 07:34:35;;;;;;;760.35;711.75;;;;;;;27.29;85.63;101682.31;10432784;28;20429;-67
2023/09/10 07:39:35;;;;;;;744.30;697.30;;;;;;;27.65;83.38;101684.75;10450567;28;20033;-66
2023/09/10 07:44:37;;;;;;;755.95;706.97;;;;;;;27.84;82.93;101679.28;10481310;28;20049;-66
2023/09/10 07:49:37;;;;;;;724.28;679.08;;;;;;;28.29;83.56;101683.47;10492152;28;20049;-68
2023/09/10 07:54:38;;;;;;;704.22;660.65;;;;;;;28.98;82.29;101675.56;10490931;28;20040;-68
2023/09/10 07:59:38;;;;;;;702.60;659.10;;;;;;;29.13;73.02;101685.66;10491184;28;20086;-66
2023/09/10 08:04:39;;;;;;;648.25;610.03;;;;;;;29.21;74.99;101687.75;10473942;28;20089;-66
2023/09/10 08:09:39;;;;;;;625.28;589.47;;;;;;;29.54;72.25;101687.75;10490349;28;20110;-67
2023/09/10 08:14:41;;;;;;;582.70;549.72;;;;;;;30.12;76.03;101678.81;10491338;28;20032;-66
2023/09/10 08:19:41;;;;;;;517.70;490.15;;;;;;;30.25;68.30;101683.63;10490955;28;20426;-66
2023/09/10 08:24:41;;;;;;;479.60;454.70;;;;;;;30.75;72.63;101683.59;10489914;28;20071;-65
2023/09/10 08:29:42;;;;;;;357.27;340.45;;;;;;;31.23;68.47;101673.81;10490720;28;20055;-65
2023/09/10 08:34:42;;;;;;;233.57;221.90;;;;;;;31.43;68.07;101670.53;10491139;28;20079;-66
2023/09/10 08:39:44;;;;;;;194.70;185.25;;;;;;;31.73;63.52;101660.44;10490696;28;20036;-67
2023/09/10 08:44:45;;;;;;;158.60;150.38;;;;;;;32.06;60.26;101662.91;10492011;28;20529;-67
2023/09/10 08:49:46;;;;;;;170.93;162.07;;;;;;;32.40;63.58;101664.97;10479974;28;20503;-62
2023/09/10 08:54:47;;;;;;;126.28;119.72;;;;;;;32.65;60.23;101663.38;10434936;28;20101;-63
2023/09/10 08:59:47;;;;;;;157.30;149.55;;;;;;;32.82;60.66;101667.34;10496655;28;20436;-64
2023/09/10 09:04:47;;;;;;;188.63;178.32;;;;;;;33.19;55.09;101662.22;10497161;28;20119;-65
2023/09/10 09:09:49;;;;;;;163.10;155.60;;;;;;;33.15;54.39;101658.41;10496819;28;20047;-63
2023/09/10 09:14:50;;;;;;;166.13;158.23;;;;;;;33.75;56.22;101663.06;10462490;28;20037;-65
2023/09/10 09:19:50;;;;;;;162.77;155.15;;;;;;;33.72;51.96;101663.72;10479193;28;20177;-65
2023/09/10 09:24:51;;;;;;;240.93;230.03;;;;;;;33.72;52.01;101667.38;10462403;28;20041;-64
2023/09/10 09:29:51;;;;;;;230.80;220.52;;;;;;;33.71;48.77;101657.28;10497436;28;20273;-63
2023/09/10 09:34:52;;;;;;;197.70;188.90;;;;;;;33.52;50.75;101649.28;10461304;28;20036;-63
2023/09/10 09:39:52;;;;;;;234.80;224.48;;;;;;;33.62;50.69;101648.06;10479147;28;20063;-63
2023/09/10 09:44:54;;;;;;;276.65;264.35;;;;;;;34.23;49.99;101640.19;10495416;28;20246;-64
2023/09/10 09:49:55;;;;;;;395.60;377.52;;;;;;;34.34;48.82;101651.03;10462036;28;20468;-63
2023/09/10 09:54:56;;;;;;;484.98;460.67;;;;;;;34.41;47.71;101646.50;10477944;28;20040;-64
2023/09/10 09:59:56;;;;;;;502.97;477.53;;;;;;;34.48;45.99;101641.16;10477334;28;20443;-64
2023/09/10 10:04:56;;;;;;;469.70;447.40;;;;;;;35.01;50.56;101637.94;10477541;28;20273;-64
2023/09/10 10:10:00;;;;;;;453.13;431.70;;;;;;;35.24;46.45;101625.13;10460116;28;20039;-62
2023/09/10 10:15:01;;;;;;;580.50;548.90;;;;;;;35.25;46.32;101634.38;10494897;28;20261;-64
2023/09/10 10:20:03;;;;;;;518.70;492.88;;;;;;;35.45;46.88;101644.78;10477516;28;20056;-64
2023/09/10 10:25:04;;;;;;;528.72;501.88;;;;;;;35.46;47.74;101635.13;10478314;28;20143;-64
2023/09/10 10:30:05;;;;;;;532.30;504.98;;;;;;;35.86;48.98;101628.84;10496231;28;20519;-64
2023/09/10 10:35:08;;;;;;;648.60;611.10;;;;;;;36.02;45.82;101629.81;10494406;28;20079;-64
2023/09/10 10:40:13;;;;;;;544.70;516.72;;;;;;;36.07;42.97;101620.28;10476505;28;20033;-64
2023/09/10 10:45:16;;;;;;;;;;;;;;;36.87;46.24;101621.50;10475962;28;20096;-64
2023/09/10 10:50:24;;;;;;;560.35;531.28;;;;;;;37.24;44.29;101610.88;10492379;28;19924;-64
2023/09/10 10:55:25;;;;;;;697.03;654.75;;;;;;;37.44;43.54;101620.25;10459683;28;20039;-65
2023/09/10 11:00:25;;;;;;;759.42;711.53;;;;;;;37.70;42.53;101608.41;10475840;28;20353;-64
2023/09/10 11:05:26;;;;;;;839.42;784.53;;;;;;;38.03;42.31;101604.38;10457972;28;20024;-64
2023/09/10 11:10:27;;;;;;;893.83;834.53;;;;;;;37.80;40.58;101604.22;10458022;28;20036;-65
2023/09/10 11:15:27;;;;;;;815.17;762.92;;;;;;;38.05;42.48;101608.47;10493085;28;20341;-64
2023/09/10 11:20:50;;;;;;;788.55;738.33;;;;;;;38.11;39.04;101609.00;10474952;28;20032;-65
2023/09/10 11:25:50;;;;;;;705.38;662.22;;;;;;;37.70;39.78;101606.41;10458878;28;20059;-64
2023/09/10 11:30:51;;;;;;;754.97;708.13;;;;;;;37.81;38.84;101600.19;10492590;28;20555;-64
2023/09/10 11:35:53;;;;;;;712.45;669.53;;;;;;;38.11;40.99;101604.16;10475034;28;20278;-64
2023/09/10 11:40:53;;;;;;;733.20;687.58;;;;;;;37.96;39.34;101609.88;10492207;28;20384;-64
2023/09/10 11:45:55;;;;;;;648.60;610.67;;;;;;;37.83;40.24;101603.47;10436122;28;20065;-64
2023/09/10 11:50:55;;;;;;;765.55;717.10;;;;;;;37.28;37.47;101597.66;10490744;28;20028;-64
2023/09/10 11:55:56;;;;;;;708.72;665.45;;;;;;;37.30;39.39;101597.25;10474107;28;20032;-64
2023/09/10 12:00:56;;;;;;;752.35;704.88;;;;;;;37.86;40.18;101591.44;10474099;28;20103;-63
2023/09/10 12:05:58;;;;;;;743.10;696.78;;;;;;;38.08;37.56;101582.28;10474882;28;20032;-65
2023/09/10 12:11:00;;;;;;;855.40;799.42;;;;;;;37.23;38.68;101593.06;10492145;28;20078;-64
2023/09/10 12:16:01;;;;;;;708.70;665.40;;;;;;;37.36;38.67;101590.97;10441819;28;20033;-65
2023/09/10 12:21:02;;;;;;;779.28;729.78;;;;;;;37.66;39.73;101582.91;10482952;28;20040;-64
2023/09/10 12:26:04;;;;;;;747.58;700.30;;;;;;;37.74;38.54;101581.06;10482643;28;20040;-63
2023/09/10 12:31:04;;;;;;;740.42;694.55;;;;;;;38.16;39.14;101577.59;10482226;28;20062;-64
2023/09/10 12:36:05;;;;;;;763.03;714.67;;;;;;;38.30;37.66;101574.28;10500026;28;20503;-63
2023/09/10 12:41:05;;;;;;;767.08;718.88;;;;;;;38.36;38.26;101572.78;10481482;28;20170;-64
2023/09/10 12:46:06;;;;;;;708.13;664.30;;;;;;;37.62;37.60;101570.69;10498611;28;20045;-63
2023/09/10 12:51:06;;;;;;;726.87;681.17;;;;;;;37.82;37.13;101565.91;10464532;28;20288;-63
2023/09/10 12:56:07;;;;;;;756.50;708.85;;;;;;;37.24;37.42;101563.66;10478626;28;20289;-66
2023/09/10 13:01:12;;;;;;;718.20;674.42;;;;;;;37.51;37.90;101549.81;10498436;28;20058;-65
2023/09/10 13:06:12;;;;;;;750.90;703.47;;;;;;;37.30;35.36;101546.41;10497710;28;20464;-64
2023/09/10 13:11:13;;;;;;;751.30;704.35;;;;;;;37.16;38.91;101553.34;10479503;28;20060;-63
2023/09/10 13:16:13;;;;;;;685.50;645.22;;;;;;;36.82;37.87;101554.81;10479277;28;20029;-63
2023/09/10 13:21:14;;;;;;;797.58;745.25;;;;;;;37.37;38.70;101543.81;10497356;28;20032;-63
2023/09/10 13:26:14;;;;;;;730.15;684.33;;;;;;;37.80;38.46;101537.19;10497388;28;20128;-64
2023/09/10 13:31:14;;;;;;;721.97;676.70;;;;;;;37.20;37.98;101534.47;10478440;28;20032;-64
2023/09/10 13:36:15;;;;;;;724.90;679.63;;;;;;;37.12;38.97;101538.31;10496349;28;20273;-64
2023/09/10 13:41:16;;;;;;;790.63;740.65;;;;;;;36.93;39.58;101536.19;10478250;28;20060;-64
2023/09/10 13:46:16;;;;;;;692.22;649.85;;;;;;;36.38;37.62;101531.38;10495704;28;20040;-64
2023/09/10 13:51:16;;;;;;;743.58;697.55;;;;;;;36.20;38.71;101531.69;10495830;28;20037;-65
2023/09/10 13:56:17;;;;;;;681.60;641.15;;;;;;;36.22;39.60;101537.78;10461395;28;20132;-65
2023/09/10 14:01:17;;;;;;;697.47;656.10;;;;;;;36.23;38.53;101530.97;10495745;28;20036;-64
2023/09/10 14:06:18;;;;;;;672.47;633.60;;;;;;;36.47;40.19;101521.59;10495154;28;20036;-64
2023/09/10 14:11:18;;;;;;;699.03;657.50;;;;;;;36.65;39.65;101510.81;10494829;28;20040;-63
2023/09/10 14:16:20;;;;;;;669.83;630.92;;;;;;;36.71;39.90;101515.03;10494574;28;20270;-65
2023/09/10 14:21:21;;;;;;;735.25;689.58;;;;;;;36.33;40.83;101509.88;10473808;28;20028;-67
2023/09/10 14:26:22;;;;;;;705.20;662.80;;;;;;;36.31;41.59;101512.25;10435209;28;20068;-66
2023/09/10 14:31:22;;;;;;;670.40;630.92;;;;;;;36.18;39.55;101494.53;10452523;28;20033;-65
2023/09/10 14:36:23;;;;;;;707.25;664.03;;;;;;;35.83;39.59;101494.28;10462489;28;20107;-67
2023/09/10 14:41:23;;;;;;;760.05;712.40;;;;;;;35.90;40.76;101494.50;10492400;28;20084;-69
2023/09/10 14:46:24;;;;;;;676.85;636.80;;;;;;;35.59;40.55;101484.69;10475865;28;20048;-68
2023/09/10 14:51:24;;;;;;;678.97;639.13;;;;;;;35.16;40.59;101479.63;10390346;28;20132;-66
2023/09/10 14:56:25;;;;;;;611.75;577.97;;;;;;;34.28;41.31;101476.09;10452859;28;20113;-69
2023/09/10 15:01:25;;;;;;;572.22;542.47;;;;;;;33.76;42.05;101470.88;10452230;28;20029;-67
2023/09/10 15:06:26;;;;;;;538.28;511.00;;;;;;;33.18;42.72;101466.91;10417323;28;20041;-67
2023/09/10 15:11:26;;;;;;;537.03;509.80;;;;;;;32.90;42.91;101464.53;10433494;28;20437;-67
2023/09/10 15:16:26;;;;;;;489.20;465.85;;;;;;;32.72;43.32;101469.34;10433515;28;20045;-67
2023/09/10 15:21:27;;;;;;;501.17;477.00;;;;;;;32.46;43.31;101469.41;10433068;28;20049;-67
2023/09/10 15:26:27;;;;;;;514.38;488.67;;;;;;;32.41;43.53;101455.53;10416514;28;20052;-67
2023/09/10 15:31:31;;;;;;;598.83;566.92;;;;;;;31.99;43.06;101468.44;10433717;28;20063;-66
2023/09/10 15:36:32;;;;;;;670.10;632.35;;;;;;;31.85;43.42;101454.56;10451633;28;20025;-68
2023/09/10 15:41:32;;;;;;;541.53;514.35;;;;;;;31.69;43.83;101446.63;10433370;28;20477;-67
2023/09/10 15:46:33;;;;;;;431.67;412.15;;;;;;;31.65;44.17;101453.19;10433951;28;20065;-67
2023/09/10 15:51:33;;;;;;;431.83;411.65;;;;;;;31.50;44.70;101434.91;10432888;28;20075;-68
2023/09/10 15:56:34;;;;;;;168.75;161.93;;;;;;;31.50;44.33;101432.13;10450733;28;20029;-68
2023/09/10 16:01:34;;;;;;;200.95;192.25;;;;;;;31.45;44.61;101433.09;10450605;28;20033;-67
2023/09/10 16:06:34;;;;;;;512.58;487.08;;;;;;;31.26;45.09;101430.53;10450650;28;20523;-67
2023/09/10 16:11:36;;;;;;;458.77;436.67;;;;;;;31.26;45.06;101427.75;10449746;28;20044;-67
2023/09/10 16:16:37;;;;;;;386.52;369.17;;;;;;;31.17;45.42;101420.47;10416311;28;20036;-66
2023/09/10 16:21:37;;;;;;;417.17;397.77;;;;;;;31.13;45.74;101425.06;10448481;28;20037;-67
2023/09/10 16:26:37;;;;;;;381.42;364.23;;;;;;;31.12;45.99;101413.06;10431674;28;20075;-67
2023/09/10 16:31:38;;;;;;;466.50;444.30;;;;;;;31.08;46.54;101414.88;10450946;28;20052;-68
2023/09/10 16:36:38;;;;;;;463.58;441.95;;;;;;;31.02;47.27;101407.78;10449541;28;20274;-66
2023/09/10 16:41:39;;;;;;;425.42;405.05;;;;;;;30.93;47.80;101409.72;10431829;28;20056;-67
2023/09/10 16:46:41;;;;;;;427.50;408.10;;;;;;;30.80;48.38;101405.88;10430880;28;20523;-68
2023/09/10 16:51:41;;;;;;;420.10;400.77;;;;;;;30.83;47.92;101404.41;10449194;28;20125;-68
2023/09/10 16:56:42;;;;;;;380.40;363.70;;;;;;;30.75;47.89;101408.75;10449826;28;20309;-66
2023/09/10 17:01:42;;;;;;;350.70;335.83;;;;;;;30.61;48.57;101406.09;10430783;28;20044;-67
2023/09/10 17:06:44;;;;;;;324.33;309.77;;;;;;;30.57;48.84;101408.69;10436787;28;20037;-68
2023/09/10 17:11:45;;;;;;;308.65;295.65;;;;;;;30.47;50.15;101408.13;10422220;28;20040;-66
2023/09/10 17:16:46;;;;;;;297.23;284.90;;;;;;;30.34;51.04;101410.69;10455565;28;20384;-67
2023/09/10 17:21:46;;;;;;;603.88;569.10;;;;;;;30.28;51.30;101416.72;10456030;28;20053;-67
2023/09/10 17:26:47;;;;;;;284.85;272.38;;;;;;;30.13;50.59;101420.72;10456979;28;20036;-69
2023/09/10 17:31:48;;;;;;;248.95;237.65;;;;;;;29.97;51.27;101416.66;10456245;28;20044;-67
2023/09/10 17:36:49;;;;;;;146.73;140.30;;;;;;;29.76;53.09;101410.69;10455365;28;20079;-66
2023/09/10 17:41:49;;;;;;;110.28;105.70;;;;;;;29.64;53.35;101408.44;10420688;28;20056;-69
2023/09/10 17:46:55;;;;;;;85.93;81.95;;;;;;;29.51;53.53;101409.28;10436622;28;20444;-67
2023/09/10 17:51:55;;;;;;;96.93;92.03;;;;;;;29.31;52.83;101408.59;10454611;28;20033;-67
2023/09/10 17:56:55;;;;;;;140.93;134.85;;;;;;;29.12;53.42;101405.09;10454235;28;20037;-67
2023/09/10 18:01:56;;;;;;;213.27;204.20;;;;;;;28.94;54.21;101412.41;10437172;28;20123;-67
2023/09/10 18:06:56;;;;;;;228.35;218.80;;;;;;;28.77;54.82;101415.81;10455223;28;20404;-67
2023/09/10 18:11:57;;;;;;;238.13;228.25;;;;;;;28.61;55.12;101414.44;10454138;28;20469;-67
2023/09/10 18:16:57;;;;;;;287.85;275.27;;;;;;;28.39;55.81;101407.53;10454700;28;20075;-67
2023/09/10 18:21:58;;;;;;;385.50;367.65;;;;;;;28.15;56.51;101410.47;10455326;28;20493;-69
2023/09/10 18:26:59;;;;;;;402.92;384.25;;;;;;;27.97;58.32;101405.75;10419132;28;20087;-68
2023/09/10 18:31:59;;;;;;;412.02;393.17;;;;;;;27.87;57.99;101417.88;10453675;28;20029;-67
2023/09/10 18:37:00;;;;;;;417.50;398.33;;;;;;;27.75;57.63;101415.50;10434552;28;20568;-67
2023/09/10 18:42:00;;;;;;;451.88;430.02;;;;;;;27.57;57.59;101419.13;10452762;28;20142;-69
2023/09/10 18:47:00;;;;;;;477.63;454.10;;;;;;;27.40;57.68;101419.63;10452259;28;20187;-68
2023/09/10 18:52:08;;;;;;;515.10;489.23;;;;;;;27.27;58.27;101417.56;10453340;28;20032;-67
2023/09/10 18:57:13;;;;;;;542.75;513.10;;;;;;;27.12;59.78;101415.75;10418732;28;20451;-68
2023/09/10 19:02:14;;;;;;;548.97;519.05;;;;;;;27.04;62.04;101417.25;10434498;28;20033;-67
2023/09/10 19:07:15;;;;;;;590.40;558.38;;;;;;;26.94;61.03;101422.94;10452296;28;20406;-67
2023/09/10 19:12:16;;;;;;;615.38;580.25;;;;;;;26.84;60.63;101428.63;10452333;28;20123;-68
2023/09/10 19:17:16;;;;;;;656.38;618.20;;;;;;;26.74;61.05;101428.69;10451695;28;20036;-67
2023/09/10 19:22:17;;;;;;;645.35;607.35;;;;;;;26.70;61.87;101424.84;10451406;28;20043;-67
2023/09/10 19:27:17;;;;;;;665.50;626.90;;;;;;;26.65;61.59;101431.31;10451236;28;20496;-68
2023/09/10 19:32:18;;;;;;;723.88;679.22;;;;;;;26.57;62.14;101421.63;10452057;28;20043;-66
2023/09/10 19:37:21;;;;;;;714.08;670.70;;;;;;;26.45;62.09;101426.72;10433699;28;20041;-68
2023/09/10 19:42:21;;;;;;;731.65;686.55;;;;;;;26.35;62.50;101421.25;10433888;28;20057;-67
2023/09/10 19:47:22;;;;;;;735.67;690.28;;;;;;;26.24;62.49;101428.84;10451086;28;20049;-66
2023/09/10 19:52:22;;;;;;;739.15;693.28;;;;;;;26.13;63.79;101428.13;10416918;28;20409;-67
2023/09/10 19:57:23;;;;;;;748.33;701.78;;;;;;;26.08;64.51;101427.31;10450554;28;20484;-67
2023/09/10 20:02:23;;;;;;;749.55;702.97;;;;;;;25.99;64.88;101418.78;10433206;28;20056;-67
2023/09/10 20:07:23;;;;;;;794.88;744.63;;;;;;;25.90;65.71;101420.50;10432744;28;20463;-66
2023/09/10 20:12:24;;;;;;;778.63;729.28;;;;;;;25.84;66.86;101416.09;10450914;28;20033;-68
2023/09/10 20:17:25;;;;;;;768.40;720.10;;;;;;;25.72;66.79;101413.66;10433072;28;20460;-68
2023/09/10 20:22:26;;;;;;;762.53;714.83;;;;;;;25.61;67.22;101406.50;10450172;28;20029;-68
2023/09/10 20:27:26;;;;;;;724.58;681.08;;;;;;;25.49;68.19;101406.84;10450844;28;20033;-67
2023/09/10 20:32:28;;;;;;;668.35;631.10;;;;;;;25.37;70.02;101406.38;10450328;28;20037;-67
2023/09/10 20:37:29;;;;;;;396.90;374.23;;;;;;;25.29;72.04;101399.47;10415633;28;20491;-68
2023/09/10 20:42:30;;;;;;;260.10;249.15;;;;;;;25.20;71.47;101399.22;10421597;28;20441;-68
2023/09/10 20:47:31;;;;;;;272.98;260.13;;;;;;;25.10;74.04;101395.63;10457761;28;20039;-67
2023/09/10 20:52:31;;;;;;;653.58;617.00;;;;;;;25.01;74.45;101385.13;10459290;28;20033;-67
2023/09/10 20:57:32;;;;;;;760.50;712.95;;;;;;;24.95;75.46;101385.44;10424385;28;20044;-67
2023/09/10 21:02:32;;;;;;;745.80;699.53;;;;;;;24.95;75.60;101385.44;10458142;28;20025;-68
2023/09/10 21:07:33;;;;;;;620.28;586.20;;;;;;;24.87;75.89;101384.09;10422873;28;20032;-69
2023/09/10 21:12:33;;;;;;;612.80;579.83;;;;;;;24.76;77.56;101376.91;10456794;28;20040;-70
2023/09/10 21:17:34;;;;;;;596.05;564.50;;;;;;;24.74;77.84;101379.97;10455583;28;20033;-69
2023/09/10 21:22:34;;;;;;;597.20;565.67;;;;;;;24.69;78.37;101368.06;10456213;28;20040;-70
2023/09/10 21:27:35;;;;;;;598.97;567.17;;;;;;;24.68;80.33;101367.25;10438534;28;20094;-70
2023/09/10 21:32:35;;;;;;;604.47;571.83;;;;;;;24.63;82.41;101360.88;10456205;28;20025;-70
2023/09/10 21:37:35;;;;;;;588.28;556.95;;;;;;;24.54;82.49;101349.56;10454396;28;20526;-69
2023/09/10 21:42:36;;;;;;;587.67;556.97;;;;;;;24.46;82.60;101353.72;10455705;28;20057;-70
2023/09/10 21:47:36;;;;;;;547.50;519.83;;;;;;;24.42;86.67;101347.09;10437705;28;20033;-70
2023/09/10 21:52:39;;;;;;;562.97;534.08;;;;;;;24.41;87.13;101339.00;10455748;28;20119;-68
2023/09/10 21:57:39;;;;;;;578.03;547.83;;;;;;;24.37;86.32;101345.09;10455781;28;20029;-69